createdAt,value
2023-05-02T00:01:20.369Z,5.20
2023-05-02T00:03:23.113Z,4.70
2023-05-02T00:05:25.812Z,5.15
2023-05-02T00:07:28.724Z,5.03
2023-05-02T00:09:31.347Z,4.15
2023-05-02T00:11:33.957Z,5.07
2023-05-02T00:13:36.532Z,4.43
2023-05-02T00:15:40.501Z,4.50
2023-05-02T00:17:43.621Z,5.05
2023-05-02T00:19:46.313Z,4.40
2023-05-02T00:21:49.810Z,4.75
2023-05-02T00:23:52.481Z,4.85
2023-05-02T00:25:55.056Z,4.88
2023-05-02T00:27:57.624Z,5.45
2023-05-02T00:30:00.991Z,4.88
2023-05-02T00:32:06.522Z,5.22
2023-05-02T00:34:09.103Z,5.00
2023-05-02T00:36:15.648Z,5.18
2023-05-02T00:38:18.205Z,4.55
2023-05-02T00:40:21.022Z,5.32
2023-05-02T00:42:23.625Z,4.88
2023-05-02T00:44:26.188Z,5.25
2023-05-02T00:46:28.906Z,5.40
2023-05-02T00:48:33.009Z,4.97
2023-05-02T00:50:37.269Z,4.57
2023-05-02T00:52:39.834Z,5.25
2023-05-02T00:54:43.212Z,5.40
2023-05-02T00:56:46.436Z,4.82
2023-05-02T00:58:49.092Z,5.00
2023-05-02T01:01:05.948Z,4.18
2023-05-02T01:03:18.460Z,5.10
2023-05-02T01:05:28.949Z,4.63
2023-05-02T01:07:48.053Z,4.60
2023-05-02T01:10:02.533Z,4.28
2023-05-02T01:12:11.404Z,5.00
2023-05-02T01:14:16.085Z,4.35
2023-05-02T01:16:21.264Z,4.57
2023-05-02T01:18:25.753Z,4.35
2023-05-02T01:20:31.753Z,4.63
2023-05-02T01:22:35.672Z,4.60
2023-05-02T01:24:49.949Z,4.63
2023-05-02T01:27:02.867Z,4.30
2023-05-02T01:29:09.454Z,4.50
2023-05-02T01:31:13.201Z,5.00
2023-05-02T01:33:18.265Z,4.22
2023-05-02T01:35:23.274Z,4.40
2023-05-02T01:37:28.505Z,4.53
2023-05-02T01:39:32.102Z,4.50
2023-05-02T01:41:36.744Z,4.85
2023-05-02T01:43:41.318Z,3.72
2023-05-02T01:45:48.235Z,4.28
2023-05-02T01:47:51.797Z,4.78
2023-05-02T01:49:54.461Z,4.70
2023-05-02T01:51:58.092Z,4.53
2023-05-02T01:54:04.201Z,4.32
2023-05-02T01:56:07.544Z,4.35
2023-05-02T01:58:11.471Z,4.30
2023-05-02T02:00:17.322Z,4.55
2023-05-02T02:02:22.386Z,3.92
2023-05-02T02:04:26.949Z,4.47
2023-05-02T02:06:29.656Z,3.97
2023-05-02T02:08:32.237Z,4.22
2023-05-02T02:10:41.148Z,4.53
2023-05-02T02:12:48.495Z,4.32
2023-05-02T02:14:57.135Z,4.15
2023-05-02T02:17:02.790Z,4.57
2023-05-02T02:19:11.249Z,4.20
2023-05-02T02:21:18.922Z,3.92
2023-05-02T02:23:24.453Z,4.50
2023-05-02T02:25:28.361Z,4.40
2023-05-02T02:27:31.145Z,4.18
2023-05-02T02:29:33.947Z,4.07
2023-05-02T02:31:39.121Z,4.22
2023-05-02T02:33:42.118Z,4.68
2023-05-02T02:35:59.468Z,4.55
2023-05-02T02:38:15.323Z,4.30
2023-05-02T02:40:22.914Z,4.20
2023-05-02T02:42:36.112Z,4.68
2023-05-02T02:44:47.137Z,4.28
2023-05-02T02:47:00.905Z,3.97
2023-05-02T02:49:16.231Z,4.65
2023-05-02T02:51:29.136Z,4.78
2023-05-02T02:53:41.986Z,4.38
2023-05-02T02:55:48.685Z,3.85
2023-05-02T02:58:00.262Z,4.25
2023-05-02T03:00:10.766Z,5.00
2023-05-02T03:02:16.074Z,4.47
2023-05-02T03:04:21.454Z,4.75
2023-05-02T03:06:26.096Z,4.50
2023-05-02T03:08:28.762Z,4.45
2023-05-02T03:10:31.329Z,4.03
2023-05-02T03:12:34.415Z,4.20
2023-05-02T03:14:37.286Z,4.10
2023-05-02T03:16:41.483Z,4.63
2023-05-02T03:18:44.204Z,4.30
2023-05-02T03:20:46.964Z,5.18
2023-05-02T03:22:50.897Z,4.60
2023-05-02T03:24:53.510Z,4.32
2023-05-02T03:26:56.730Z,4.10
2023-05-02T03:28:59.597Z,4.18
2023-05-02T03:31:02.344Z,4.10
2023-05-02T03:33:07.905Z,3.88
2023-05-02T03:35:10.925Z,4.25
2023-05-02T03:37:13.521Z,3.90
2023-05-02T03:39:17.549Z,4.20
2023-05-02T03:41:20.941Z,4.30
2023-05-02T03:43:23.589Z,4.88
2023-05-02T03:45:26.149Z,4.82
2023-05-02T03:47:28.732Z,5.18
2023-05-02T03:49:31.335Z,5.07
2023-05-02T03:51:35.605Z,5.63
2023-05-02T03:53:38.351Z,5.03
2023-05-02T03:55:42.759Z,5.10
2023-05-02T03:57:45.327Z,5.28
2023-05-02T03:59:48.149Z,4.68
2023-05-02T04:01:51.137Z,5.35
2023-05-02T04:03:53.853Z,5.20
2023-05-02T04:05:56.455Z,5.20
2023-05-02T04:07:59.031Z,5.28
2023-05-02T04:10:01.918Z,5.45
2023-05-02T04:12:06.266Z,5.20
2023-05-02T04:14:08.907Z,6.18
2023-05-02T04:16:11.505Z,5.57
2023-05-02T04:18:14.091Z,5.80
2023-05-02T04:20:16.737Z,6.00
2023-05-02T04:22:19.323Z,5.80
2023-05-02T04:24:23.263Z,7.28
2023-05-02T04:26:25.931Z,8.15
2023-05-02T04:28:29.905Z,11.82
2023-05-02T04:30:32.609Z,12.93
2023-05-02T04:32:35.237Z,9.80
2023-05-02T04:34:37.869Z,8.20
2023-05-02T04:36:40.457Z,8.75
2023-05-02T04:38:43.138Z,8.02
2023-05-02T04:40:45.936Z,8.95
2023-05-02T04:42:48.499Z,8.32
2023-05-02T04:44:52.391Z,7.88
2023-05-02T04:46:57.788Z,8.45
2023-05-02T04:49:00.345Z,8.20
2023-05-02T04:51:03.023Z,7.57
2023-05-02T04:53:05.618Z,7.60
2023-05-02T04:55:09.017Z,7.72
2023-05-02T04:57:11.572Z,7.20
2023-05-02T04:59:14.201Z,7.78
2023-05-02T05:01:18.171Z,7.05
2023-05-02T05:03:20.889Z,7.65
2023-05-02T05:05:23.493Z,7.43
2023-05-02T05:07:26.401Z,7.95
2023-05-02T05:09:28.933Z,7.80
2023-05-02T05:11:31.765Z,8.55
2023-05-02T05:13:34.417Z,8.63
2023-05-02T05:15:36.957Z,8.38
2023-05-02T05:17:40.908Z,7.93
2023-05-02T05:19:43.485Z,7.93
2023-05-02T05:21:46.099Z,8.35
2023-05-02T05:23:48.657Z,8.05
2023-05-02T05:25:51.328Z,9.32
2023-05-02T05:27:55.807Z,9.00
2023-05-02T05:29:58.612Z,8.98
2023-05-02T05:32:01.450Z,7.65
2023-05-02T05:34:05.485Z,8.68
2023-05-02T05:36:08.843Z,7.93
2023-05-02T05:38:11.464Z,8.18
2023-05-02T05:40:14.389Z,7.50
2023-05-02T05:42:16.988Z,8.23
2023-05-02T05:44:21.718Z,8.15
2023-05-02T05:46:24.450Z,9.82
2023-05-02T05:48:27.221Z,10.00
2023-05-02T05:50:31.150Z,10.88
2023-05-02T05:52:33.725Z,11.70
2023-05-02T05:54:36.320Z,12.20
2023-05-02T05:56:38.877Z,11.90
2023-05-02T05:58:42.715Z,10.52
2023-05-02T06:00:45.308Z,10.85
2023-05-02T06:02:47.976Z,10.27
2023-05-02T06:04:50.686Z,8.85
2023-05-02T06:06:55.262Z,9.60
2023-05-02T06:08:57.926Z,9.27
2023-05-02T06:11:00.574Z,8.80
2023-05-02T06:13:03.139Z,9.30
2023-05-02T06:15:06.654Z,8.57
2023-05-02T06:17:09.244Z,8.40
2023-05-02T06:19:11.814Z,10.18
2023-05-02T06:21:15.416Z,9.52
2023-05-02T06:23:19.372Z,9.02
2023-05-02T06:25:22.026Z,8.82
2023-05-02T06:27:24.608Z,9.65
2023-05-02T06:29:27.157Z,8.48
2023-05-02T06:31:29.803Z,10.07
2023-05-02T06:33:33.705Z,9.32
2023-05-02T06:35:36.331Z,9.07
2023-05-02T06:37:38.908Z,9.70
2023-05-02T06:39:42.810Z,9.10
2023-05-02T06:41:45.358Z,8.90
2023-05-02T06:43:47.925Z,8.73
2023-05-02T06:45:54.008Z,8.85
2023-05-02T06:47:56.603Z,8.23
2023-05-02T06:49:59.321Z,8.50
2023-05-02T06:52:02.051Z,8.52
2023-05-02T06:54:04.689Z,8.20
2023-05-02T06:56:09.056Z,8.10
2023-05-02T06:58:11.668Z,8.20
2023-05-02T07:00:15.891Z,8.43
2023-05-02T07:02:18.465Z,8.68
2023-05-02T07:04:21.065Z,8.15
2023-05-02T07:06:23.651Z,8.10
2023-05-02T07:08:26.339Z,8.55
2023-05-02T07:10:28.941Z,8.82
2023-05-02T07:12:32.869Z,8.73
2023-05-02T07:14:35.435Z,8.48
2023-05-02T07:16:38.089Z,8.63
2023-05-02T07:18:40.779Z,8.30
2023-05-02T07:20:43.345Z,7.93
2023-05-02T07:22:45.909Z,8.93
2023-05-02T07:24:48.602Z,8.65
2023-05-02T07:26:51.194Z,9.05
2023-05-02T07:28:55.132Z,9.57
2023-05-02T07:30:57.729Z,9.13
2023-05-02T07:33:00.420Z,8.73
2023-05-02T07:35:02.993Z,9.07
2023-05-02T07:37:05.689Z,10.52
2023-05-02T07:39:08.267Z,9.43
2023-05-02T07:41:10.884Z,9.85
2023-05-02T07:43:15.979Z,9.18
2023-05-02T07:45:20.206Z,8.73
2023-05-02T07:47:22.873Z,9.25
2023-05-02T07:49:25.579Z,10.02
2023-05-02T07:51:28.218Z,9.50
2023-05-02T07:53:30.833Z,10.52
2023-05-02T07:55:33.445Z,10.35
2023-05-02T07:57:35.997Z,10.43
2023-05-02T07:59:39.828Z,9.40
2023-05-02T08:01:44.261Z,9.73
2023-05-02T08:03:47.713Z,10.63
2023-05-02T08:05:50.356Z,10.63
2023-05-02T08:07:52.985Z,10.35
2023-05-02T08:09:55.690Z,11.00
2023-05-02T08:11:58.343Z,12.05
2023-05-02T08:14:00.945Z,11.38
2023-05-02T08:16:03.665Z,11.38
2023-05-02T08:18:07.756Z,10.88
2023-05-02T08:20:11.020Z,12.10
2023-05-02T08:22:13.643Z,11.85
2023-05-02T08:24:16.220Z,11.70
2023-05-02T08:26:19.053Z,11.63
2023-05-02T08:28:21.630Z,11.50
2023-05-02T08:30:24.540Z,12.48
2023-05-02T08:32:27.662Z,12.48
2023-05-02T08:34:33.739Z,11.95
2023-05-02T08:36:37.252Z,12.02
2023-05-02T08:38:39.901Z,13.15
2023-05-02T08:40:43.435Z,13.52
2023-05-02T08:42:47.216Z,13.75
2023-05-02T08:44:49.942Z,14.23
2023-05-02T08:46:55.280Z,13.82
2023-05-02T08:48:59.805Z,14.02
2023-05-02T08:51:04.337Z,13.63
2023-05-02T08:53:07.713Z,13.77
2023-05-02T08:55:11.652Z,15.20
2023-05-02T08:57:14.259Z,14.85
2023-05-02T08:59:16.813Z,16.40
2023-05-02T09:01:23.521Z,15.60
2023-05-02T09:03:31.364Z,15.40
2023-05-02T09:05:40.697Z,15.23
2023-05-02T09:07:49.423Z,15.93
2023-05-02T09:09:52.160Z,17.00
2023-05-02T09:11:54.950Z,17.35
2023-05-02T09:13:58.964Z,17.10
2023-05-02T09:16:03.242Z,17.13
2023-05-02T09:18:06.032Z,15.57
2023-05-02T09:20:10.054Z,16.77
2023-05-02T09:22:12.803Z,15.18
2023-05-02T09:24:18.624Z,16.00
2023-05-02T09:26:22.395Z,16.23
2023-05-02T09:28:39.655Z,18.05
2023-05-02T09:30:42.387Z,17.77
2023-05-02T09:32:51.191Z,18.25
2023-05-02T09:35:06.534Z,18.35
2023-05-02T09:37:10.346Z,18.00
2023-05-02T09:39:14.560Z,17.25
2023-05-02T09:41:19.946Z,18.58
2023-05-02T09:43:22.697Z,18.80
2023-05-02T09:45:26.615Z,18.10
2023-05-02T09:47:29.274Z,18.02
2023-05-02T09:49:42.156Z,19.60
2023-05-02T09:51:44.769Z,19.90
2023-05-02T09:53:48.018Z,21.10
2023-05-02T09:56:01.086Z,20.60
2023-05-02T09:58:05.924Z,21.23
2023-05-02T10:00:10.382Z,20.63
2023-05-02T10:02:13.460Z,20.42
2023-05-02T10:04:16.954Z,21.92
2023-05-02T10:06:20.465Z,20.80
2023-05-02T10:08:28.410Z,22.50
2023-05-02T10:10:33.930Z,21.45
2023-05-02T10:12:38.819Z,22.33
2023-05-02T10:14:50.137Z,21.75
2023-05-02T10:16:59.403Z,21.73
2023-05-02T10:19:08.580Z,22.10
2023-05-02T10:21:12.691Z,20.88
2023-05-02T10:23:16.651Z,21.70
2023-05-02T10:25:19.987Z,21.85
2023-05-02T10:27:25.684Z,21.73
2023-05-02T10:29:30.109Z,20.10
2023-05-02T10:31:37.577Z,20.23
2023-05-02T10:33:40.809Z,20.58
2023-05-02T10:35:46.571Z,19.48
2023-05-02T10:37:50.139Z,21.00
2023-05-02T10:39:53.057Z,20.08
2023-05-02T10:41:57.457Z,19.98
2023-05-02T10:44:02.108Z,20.10
2023-05-02T10:46:04.952Z,20.08
2023-05-02T10:48:20.094Z,20.92
2023-05-02T10:50:22.763Z,18.92
2023-05-02T10:52:32.924Z,20.08
2023-05-02T10:54:35.969Z,19.23
2023-05-02T10:57:09.339Z,19.52
2023-05-02T10:59:30.034Z,18.85
2023-05-02T11:01:39.832Z,18.33
2023-05-02T11:03:56.443Z,18.73
2023-05-02T11:06:08.199Z,17.35
2023-05-02T11:10:31.424Z,16.40
2023-05-02T11:12:49.150Z,17.52
2023-05-02T11:14:51.828Z,18.10
2023-05-02T11:17:10.389Z,17.45
2023-05-02T11:19:12.947Z,18.63
2023-05-02T11:21:29.779Z,16.55
2023-05-02T11:23:32.514Z,16.50
2023-05-02T11:25:43.465Z,19.20
2023-05-02T11:29:55.125Z,16.85
2023-05-02T11:31:57.772Z,17.75
2023-05-02T11:34:01.355Z,17.15
2023-05-02T11:36:04.290Z,18.20
2023-05-02T11:38:12.413Z,18.13
2023-05-02T11:40:16.086Z,15.70
2023-05-02T11:42:32.282Z,16.58
2023-05-02T11:44:56.574Z,17.08
2023-05-02T11:46:59.176Z,18.33
2023-05-02T11:49:02.183Z,15.73
2023-05-02T11:51:07.049Z,15.07
2023-05-02T11:53:12.100Z,15.30
2023-05-02T11:55:16.410Z,14.95
2023-05-02T11:57:19.049Z,16.35
2023-05-02T11:59:21.650Z,16.77
2023-05-02T12:01:25.641Z,15.18
2023-05-02T12:03:30.928Z,15.95
2023-05-02T12:05:33.956Z,16.60
2023-05-02T12:07:37.954Z,15.95
2023-05-02T12:09:51.444Z,16.05
2023-05-02T12:11:54.810Z,16.38
2023-05-02T12:13:57.531Z,16.23
2023-05-02T12:16:00.581Z,16.20
2023-05-02T12:18:04.876Z,16.75
2023-05-02T12:20:09.960Z,16.15
2023-05-02T12:22:13.478Z,15.75
2023-05-02T12:24:16.376Z,15.25
2023-05-02T12:26:20.260Z,15.82
2023-05-02T12:28:23.912Z,16.35
2023-05-02T12:30:27.148Z,14.75
2023-05-02T12:32:31.501Z,14.60
2023-05-02T12:34:37.429Z,14.40
2023-05-02T12:36:44.959Z,14.85
2023-05-02T12:38:52.329Z,15.13
2023-05-02T12:40:57.674Z,14.77
2023-05-02T12:43:04.497Z,15.38
2023-05-02T12:45:18.100Z,14.93
2023-05-02T12:47:22.529Z,15.20
2023-05-02T12:49:25.331Z,15.07
2023-05-02T12:51:31.408Z,13.10
2023-05-02T12:53:41.578Z,14.13
2023-05-02T12:55:44.446Z,13.25
2023-05-02T12:57:47.590Z,14.77
2023-05-02T12:59:53.770Z,13.98
2023-05-02T13:01:57.256Z,13.32
2023-05-02T13:03:59.925Z,14.00
2023-05-02T13:06:02.637Z,13.68
2023-05-02T13:08:07.115Z,13.25
2023-05-02T13:10:11.130Z,13.93
2023-05-02T13:12:13.712Z,12.77
2023-05-02T13:14:16.300Z,12.68
2023-05-02T13:16:18.980Z,11.57
2023-05-02T13:18:24.371Z,10.93
2023-05-02T13:20:27.151Z,12.45
2023-05-02T13:22:29.908Z,11.38
2023-05-02T13:24:33.881Z,12.25
2023-05-02T13:26:36.448Z,11.15
2023-05-02T13:28:38.996Z,12.48
2023-05-02T13:30:42.008Z,11.43
2023-05-02T13:32:44.716Z,11.93
2023-05-02T13:34:47.312Z,10.63
2023-05-02T13:36:49.858Z,13.15
2023-05-02T13:39:09.894Z,12.77
2023-05-02T13:41:14.179Z,14.02
2023-05-02T13:43:16.868Z,13.45
2023-05-02T13:45:19.650Z,15.20
2023-05-02T13:47:22.731Z,15.05
2023-05-02T13:49:25.686Z,13.30
2023-05-02T13:51:28.337Z,15.55
2023-05-02T13:53:30.924Z,14.75
2023-05-02T13:55:33.478Z,14.77
2023-05-02T13:57:37.375Z,13.75
2023-05-02T13:59:39.954Z,13.70
2023-05-02T14:01:42.555Z,12.93
2023-05-02T14:03:45.422Z,14.00
2023-05-02T14:05:48.082Z,14.45
2023-05-02T14:07:50.628Z,15.27
2023-05-02T14:09:53.164Z,14.10
2023-05-02T14:11:56.565Z,15.10
2023-05-02T14:14:00.943Z,18.70
2023-05-02T14:16:03.823Z,19.42
2023-05-02T14:18:06.469Z,18.50
2023-05-02T14:20:10.537Z,19.33
2023-05-02T14:22:13.294Z,20.25
2023-05-02T14:24:16.475Z,19.35
2023-05-02T14:26:20.413Z,19.75
2023-05-02T14:28:23.375Z,19.63
2023-05-02T14:30:27.415Z,19.45
2023-05-02T14:32:30.033Z,19.17
2023-05-02T14:34:32.652Z,20.10
2023-05-02T14:36:35.298Z,21.92
2023-05-02T14:38:37.893Z,19.10
2023-05-02T14:40:40.634Z,16.92
2023-05-02T14:42:43.679Z,16.95
2023-05-02T14:44:46.268Z,16.08
2023-05-02T14:46:51.357Z,16.50
2023-05-02T14:48:53.954Z,15.15
2023-05-02T14:50:56.552Z,15.10
2023-05-02T14:52:59.106Z,15.25
2023-05-02T14:55:01.852Z,16.63
2023-05-02T14:57:04.891Z,16.25
2023-05-02T14:59:07.484Z,16.10
2023-05-02T15:01:16.651Z,15.20
2023-05-02T15:03:20.855Z,14.90
2023-05-02T15:05:23.647Z,14.45
2023-05-02T15:07:26.841Z,13.65
2023-05-02T15:09:30.142Z,12.45
2023-05-02T15:11:32.937Z,11.98
2023-05-02T15:13:35.493Z,11.65
2023-05-02T15:15:38.170Z,12.77
2023-05-02T15:17:40.735Z,12.57
2023-05-02T15:19:44.741Z,12.57
2023-05-02T15:21:47.313Z,11.95
2023-05-02T15:23:49.917Z,11.70
2023-05-02T15:25:52.566Z,11.75
2023-05-02T15:27:55.100Z,11.00
2023-05-02T15:29:58.182Z,11.27
2023-05-02T15:32:00.819Z,10.85
2023-05-02T15:34:03.704Z,10.57
2023-05-02T15:36:08.520Z,10.93
2023-05-02T15:38:11.091Z,9.98
2023-05-02T15:40:15.323Z,10.60
2023-05-02T15:42:17.876Z,10.57
2023-05-02T15:44:20.542Z,12.00
2023-05-02T15:46:23.180Z,9.77
2023-05-02T15:48:28.908Z,11.52
2023-05-02T15:50:31.871Z,11.77
2023-05-02T15:52:35.795Z,10.02
2023-05-02T15:54:39.277Z,9.35
2023-05-02T15:56:41.843Z,8.68
2023-05-02T15:58:44.424Z,8.05
2023-05-02T16:00:47.540Z,7.50
2023-05-02T16:02:50.200Z,7.72
2023-05-02T16:04:52.790Z,8.65
2023-05-02T16:06:55.547Z,8.00
2023-05-02T16:09:00.515Z,7.93
2023-05-02T16:11:04.246Z,7.57
2023-05-02T16:13:06.944Z,8.43
2023-05-02T16:15:10.121Z,7.78
2023-05-02T16:17:12.658Z,7.75
2023-05-02T16:19:15.263Z,8.15
2023-05-02T16:21:17.813Z,8.68
2023-05-02T16:23:22.067Z,9.35
2023-05-02T16:25:27.034Z,8.70
2023-05-02T16:27:29.681Z,8.68
2023-05-02T16:29:35.167Z,8.63
2023-05-02T16:31:37.838Z,8.85
2023-05-02T16:33:40.608Z,9.10
2023-05-02T16:35:43.218Z,8.63
2023-05-02T16:37:45.809Z,7.70
2023-05-02T16:39:48.494Z,7.47
2023-05-02T16:41:52.415Z,7.68
2023-05-02T16:43:55.141Z,7.40
2023-05-02T16:46:02.341Z,6.50
2023-05-02T16:48:05.302Z,6.65
2023-05-02T16:50:09.294Z,6.53
2023-05-02T16:52:11.963Z,6.80
2023-05-02T16:54:14.515Z,6.88
2023-05-02T16:56:17.081Z,7.82
2023-05-02T16:58:21.609Z,6.90
2023-05-02T17:00:24.397Z,6.93
2023-05-02T17:02:27.085Z,7.00
2023-05-02T17:04:30.058Z,6.00
2023-05-02T17:06:32.700Z,5.45
2023-05-02T17:08:35.381Z,5.63
2023-05-02T17:10:38.159Z,5.35
2023-05-02T17:12:40.736Z,5.13
2023-05-02T17:14:44.635Z,5.53
2023-05-02T17:16:47.298Z,4.85
2023-05-02T17:18:49.867Z,4.97
2023-05-02T17:20:52.831Z,5.25
2023-05-02T17:22:55.859Z,5.75
2023-05-02T17:24:58.657Z,6.28
2023-05-02T17:27:02.814Z,6.13
2023-05-02T17:29:05.358Z,6.85
2023-05-02T17:31:09.613Z,7.57
2023-05-02T17:33:12.263Z,6.20
2023-05-02T17:35:16.313Z,7.82
2023-05-02T17:37:18.879Z,8.80
2023-05-02T17:39:21.436Z,8.77
2023-05-02T17:41:24.001Z,8.48
2023-05-02T17:43:26.571Z,6.00
2023-05-02T17:45:29.843Z,5.90
2023-05-02T17:47:33.759Z,5.38
2023-05-02T17:49:37.096Z,5.30
2023-05-02T17:51:39.739Z,4.78
2023-05-02T17:53:42.596Z,4.05
2023-05-02T17:55:45.240Z,4.07
2023-05-02T17:57:48.538Z,4.30
2023-05-02T17:59:53.671Z,4.65
2023-05-02T18:01:56.386Z,4.25
2023-05-02T18:04:00.920Z,4.47
2023-05-02T18:06:03.679Z,4.68
2023-05-02T18:08:07.207Z,4.22
2023-05-02T18:10:09.860Z,4.57
2023-05-02T18:12:12.415Z,4.70
2023-05-02T18:14:14.980Z,4.10
2023-05-02T18:16:17.684Z,4.40
2023-05-02T18:18:20.379Z,4.00
2023-05-02T18:20:24.288Z,4.22
2023-05-02T18:22:28.124Z,3.83
2023-05-02T18:24:31.985Z,3.60
2023-05-02T18:26:34.552Z,4.10
2023-05-02T18:28:37.089Z,4.00
2023-05-02T18:30:40.352Z,3.92
2023-05-02T18:32:42.982Z,4.55
2023-05-02T18:34:45.717Z,4.88
2023-05-02T18:36:49.616Z,4.53
2023-05-02T18:38:52.449Z,3.80
2023-05-02T18:40:55.022Z,4.25
2023-05-02T18:42:57.586Z,4.72
2023-05-02T18:45:00.532Z,4.88
2023-05-02T18:47:03.469Z,4.70
2023-05-02T18:49:08.938Z,5.35
2023-05-02T18:51:11.501Z,4.68
2023-05-02T18:53:15.498Z,4.10
2023-05-02T18:55:18.328Z,4.40
2023-05-02T18:57:21.532Z,4.88
2023-05-02T18:59:24.107Z,5.03
2023-05-02T19:01:26.750Z,5.18
2023-05-02T19:03:30.452Z,5.03
2023-05-02T19:05:34.708Z,5.22
2023-05-02T19:07:38.457Z,4.90
2023-05-02T19:09:42.692Z,5.75
2023-05-02T19:11:45.351Z,5.05
2023-05-02T19:13:50.897Z,5.35
2023-05-02T19:15:53.639Z,5.95
2023-05-02T19:17:56.455Z,5.50
2023-05-02T19:19:59.205Z,6.03
2023-05-02T19:22:01.736Z,5.78
2023-05-02T19:24:04.748Z,5.20
2023-05-02T19:26:13.009Z,5.40
2023-05-02T19:28:16.839Z,5.70
2023-05-02T19:30:21.519Z,5.45
2023-05-02T19:32:25.057Z,5.03
2023-05-02T19:34:28.172Z,4.90
2023-05-02T19:36:31.122Z,4.80
2023-05-02T19:38:34.190Z,4.95
2023-05-02T19:40:36.765Z,5.50
2023-05-02T19:42:40.761Z,5.25
2023-05-02T19:44:43.299Z,5.68
2023-05-02T19:46:46.163Z,5.10
2023-05-02T19:48:48.765Z,4.55
2023-05-02T19:50:51.404Z,5.13
2023-05-02T19:52:53.973Z,4.88
2023-05-02T19:54:56.601Z,5.32
2023-05-02T19:56:59.215Z,5.07
2023-05-02T19:59:03.253Z,5.13
2023-05-02T20:01:05.867Z,5.05
2023-05-02T20:03:08.746Z,4.82
2023-05-02T20:05:11.470Z,5.13
2023-05-02T20:07:14.135Z,6.00
2023-05-02T20:09:17.197Z,4.75
2023-05-02T20:11:19.890Z,4.80
2023-05-02T20:13:22.520Z,4.60
2023-05-02T20:15:30.034Z,4.50
2023-05-02T20:17:32.671Z,4.47
2023-05-02T20:19:35.317Z,5.40
2023-05-02T20:21:40.239Z,4.68
2023-05-02T20:23:43.558Z,5.22
2023-05-02T20:25:46.399Z,4.82
2023-05-02T20:27:49.031Z,5.07
2023-05-02T20:29:51.856Z,5.47
2023-05-02T20:31:56.649Z,5.18
2023-05-02T20:34:00.305Z,5.70
2023-05-02T20:36:02.954Z,5.05
2023-05-02T20:38:05.532Z,6.47
2023-05-02T20:40:09.909Z,7.10
2023-05-02T20:42:12.537Z,6.75
2023-05-02T20:44:16.971Z,6.68
2023-05-02T20:46:20.742Z,7.40
2023-05-02T20:48:24.761Z,5.93
2023-05-02T20:50:27.348Z,6.00
2023-05-02T20:52:30.104Z,6.32
2023-05-02T20:54:32.679Z,6.55
2023-05-02T20:56:35.252Z,5.05
2023-05-02T20:58:37.830Z,5.30
2023-05-02T21:00:41.085Z,5.72
2023-05-02T21:02:43.705Z,5.40
2023-05-02T21:04:47.690Z,5.60
2023-05-02T21:06:50.386Z,5.55
2023-05-02T21:08:55.099Z,5.78
2023-05-02T21:10:57.675Z,6.80
2023-05-02T21:13:00.267Z,6.78
2023-05-02T21:15:03.079Z,6.03
2023-05-02T21:17:05.749Z,7.50
2023-05-02T21:19:08.438Z,7.47
2023-05-02T21:21:12.415Z,6.10
2023-05-02T21:23:14.971Z,5.40
2023-05-02T21:25:17.626Z,6.57
2023-05-02T21:27:20.299Z,7.05
2023-05-02T21:29:22.930Z,7.43
2023-05-02T21:31:25.520Z,7.90
2023-05-02T21:33:28.114Z,7.32
2023-05-02T21:35:33.946Z,7.47
2023-05-02T21:37:37.891Z,7.35
2023-05-02T21:39:40.597Z,6.85
2023-05-02T21:41:43.203Z,6.50
2023-05-02T21:43:45.914Z,6.18
2023-05-02T21:45:49.669Z,6.93
2023-05-02T21:47:52.749Z,6.88
2023-05-02T21:49:56.804Z,6.97
2023-05-02T21:51:59.409Z,6.55
2023-05-02T21:54:03.476Z,6.03
2023-05-02T21:56:07.992Z,6.72
2023-05-02T21:58:12.858Z,7.13
2023-05-02T22:00:16.140Z,6.05
2023-05-02T22:02:18.754Z,6.50
2023-05-02T22:04:21.361Z,6.28
2023-05-02T22:06:23.943Z,7.53
2023-05-02T22:08:27.245Z,7.80
2023-05-02T22:10:31.359Z,7.32
2023-05-02T22:12:33.906Z,6.40
2023-05-02T22:14:44.605Z,6.63
2023-05-02T22:16:48.167Z,6.20
2023-05-02T22:18:50.755Z,5.75
2023-05-02T22:20:54.091Z,6.60
2023-05-02T22:22:56.676Z,6.50
2023-05-02T22:24:59.264Z,6.38
2023-05-02T22:27:03.211Z,7.60
2023-05-02T22:29:06.752Z,6.63
2023-05-02T22:31:09.343Z,7.15
2023-05-02T22:33:12.808Z,6.07
2023-05-02T22:35:15.728Z,5.95
2023-05-02T22:37:18.294Z,6.50
2023-05-02T22:39:21.564Z,6.85
2023-05-02T22:41:24.177Z,6.60
2023-05-02T22:43:28.148Z,6.40
2023-05-02T22:45:30.734Z,7.07
2023-05-02T22:47:33.423Z,7.22
2023-05-02T22:49:36.057Z,7.75
2023-05-02T22:51:40.109Z,8.02
2023-05-02T22:53:42.893Z,8.52
2023-05-02T22:55:45.454Z,8.13
2023-05-02T22:57:47.983Z,9.23
2023-05-02T22:59:51.973Z,8.88
2023-05-02T23:01:54.562Z,8.77
2023-05-02T23:03:57.319Z,8.73
2023-05-02T23:06:00.148Z,8.52
2023-05-02T23:08:02.745Z,8.93
2023-05-02T23:10:06.356Z,7.90
2023-05-02T23:12:08.967Z,8.25
2023-05-02T23:14:11.528Z,8.20
2023-05-02T23:16:15.550Z,8.43
2023-05-02T23:18:18.438Z,8.05
2023-05-02T23:20:23.065Z,8.32
2023-05-02T23:22:26.002Z,8.55
2023-05-02T23:24:29.070Z,7.82
2023-05-02T23:26:31.615Z,8.30
2023-05-02T23:28:34.187Z,8.32
2023-05-02T23:30:39.239Z,7.03
2023-05-02T23:32:43.202Z,7.32
2023-05-02T23:34:46.100Z,8.43
2023-05-02T23:36:49.662Z,8.43
2023-05-02T23:38:52.311Z,8.48
2023-05-02T23:40:55.259Z,8.20
2023-05-02T23:42:58.058Z,8.80
2023-05-02T23:45:00.719Z,8.85
2023-05-02T23:47:03.327Z,7.93
2023-05-02T23:49:07.324Z,7.90
2023-05-02T23:51:09.867Z,7.75
2023-05-02T23:53:12.443Z,8.32
2023-05-02T23:55:14.985Z,7.88
2023-05-02T23:57:17.556Z,6.97
2023-05-02T23:59:20.173Z,7.18
